Terminal Aerodrome Forecast
Issued by NWS Sterling, VA

Current Version | Previous Version | Text Only | Print | Product List | Glossary Off
Versions: 1 2 3 4 5 6 7 8 9 10 11 12 13 14 15 16 17 18 19 20 21 22 23 24 25 26

000
FTUS41 KLWX 220533
TAFIAD
TAF
KIAD 220533Z 2206/2312 VRB03KT 1/2SM -DZ FG OVC003
     FM220900 VRB03KT 1/4SM -DZ FG OVC002
     FM221500 05005KT 2SM -DZ BR OVC003
     FM221800 05006KT 5SM -RADZ BKN008 OVC015
     FM230000 08010G17KT 5SM -RA BKN008 OVC015
     FM230800 06015G25KT 5SM -RA BKN008 OVC015=

USA.gov is the U.S. government's official web portal to all federal, state and local government web resources and services.